Time;durP1;ratioP1;P1;durP2;ratioP2;P2;SDS_P1;SDS_P2;PMS_P1;PMS_P2;Temp;Humidity;BMP_temperature;BMP_pressure;BME280_temperature;BME280_humidity;BME280_pressure;Samples;Min_cycle;Max_cycle;Signal;HPM_P1;HPM_P2
2023/12/08 00:02:08;;;;;;;15.82;5.15;;;30.80;99.90;;;;;;5024082;28;20225;-76
2023/12/08 00:04:39;;;;;;;13.32;4.78;;;30.70;99.90;;;;;;5016038;28;20196;-76
2023/12/08 00:07:10;;;;;;;18.42;5.50;;;30.90;99.90;;;;;;5030635;28;20550;-77
2023/12/08 00:09:40;;;;;;;15.23;5.38;;;31.00;99.90;;;;;;5031329;28;20201;-77
2023/12/08 00:12:11;;;;;;;14.85;5.05;;;31.10;99.90;;;;;;5031081;28;20203;-77
2023/12/08 00:14:44;;;;;;;13.43;5.25;;;31.10;99.90;;;;;;5026684;28;20217;-77
2023/12/08 00:17:15;;;;;;;19.05;5.97;;;31.20;99.90;;;;;;5027434;28;20202;-77
2023/12/08 00:19:46;;;;;;;19.00;5.63;;;31.20;99.90;;;;;;5024069;28;20232;-78
2023/12/08 00:22:16;;;;;;;11.68;4.82;;;31.40;99.90;;;;;;5028560;28;20675;-78
2023/12/08 00:24:48;;;;;;;16.88;5.35;;;31.50;99.90;;;;;;5031608;28;20668;-76
2023/12/08 00:27:19;;;;;;;18.48;5.80;;;31.60;99.90;;;;;;5026694;28;20292;-76
2023/12/08 00:29:52;;;;;;;17.13;5.80;;;31.50;99.90;;;;;;5026852;28;20239;-76
2023/12/08 00:32:22;;;;;;;18.48;5.45;;;31.40;99.90;;;;;;5021551;28;20230;-76
2023/12/08 00:34:53;;;;;;;15.80;5.63;;;31.40;99.90;;;;;;5012550;28;20209;-77
2023/12/08 00:37:25;;;;;;;14.13;5.47;;;31.60;99.90;;;;;;5030384;28;20304;-77
2023/12/08 00:39:55;;;;;;;17.20;5.50;;;31.70;99.90;;;;;;5031178;28;20351;-76
2023/12/08 00:42:26;;;;;;;19.77;5.90;;;31.70;99.90;;;;;;5023595;28;20548;-77
2023/12/08 00:44:59;;;;;;;16.63;5.57;;;31.70;99.90;;;;;;5028494;28;20226;-77
2023/12/08 00:47:30;;;;;;;17.00;6.15;;;31.60;99.90;;;;;;5030003;28;20235;-78
2023/12/08 00:50:01;;;;;;;15.07;5.43;;;31.60;99.90;;;;;;5027586;28;20252;-77
2023/12/08 00:52:32;;;;;;;16.15;5.57;;;31.60;99.90;;;;;;5024890;28;20201;-77
2023/12/08 00:55:02;;;;;;;12.13;5.00;;;31.70;99.90;;;;;;5029962;28;20371;-77
2023/12/08 00:57:35;;;;;;;14.65;5.40;;;31.80;99.90;;;;;;5024370;28;20200;-77
2023/12/08 01:00:09;;;;;;;11.52;5.00;;;31.80;99.90;;;;;;5023391;28;20221;-77
2023/12/08 01:02:39;;;;;;;15.10;5.75;;;31.70;99.90;;;;;;5032376;28;20281;-79
2023/12/08 01:05:11;;;;;;;16.52;5.53;;;31.70;99.90;;;;;;5042644;28;20222;-77
2023/12/08 01:07:42;;;;;;;16.20;5.85;;;31.80;99.90;;;;;;5036807;28;20213;-78
2023/12/08 01:10:12;;;;;;;17.55;6.50;;;31.90;99.90;;;;;;5025057;28;20247;-79
2023/12/08 01:12:43;;;;;;;14.40;6.22;;;31.70;99.90;;;;;;5029751;28;20209;-78
2023/12/08 01:15:16;;;;;;;17.52;6.20;;;31.60;99.90;;;;;;5027103;28;20194;-79
2023/12/08 01:17:48;;;;;;;17.25;6.55;;;31.50;99.90;;;;;;5028452;28;20207;-78
2023/12/08 01:20:21;;;;;;;18.60;7.70;;;31.50;99.90;;;;;;5023546;28;20223;-77
2023/12/08 01:22:53;;;;;;;19.02;7.45;;;31.50;99.90;;;;;;5026431;28;20296;-79
2023/12/08 01:25:24;;;;;;;17.42;6.90;;;31.50;99.90;;;;;;5022174;28;20227;-78
2023/12/08 01:27:58;;;;;;;14.25;6.70;;;31.60;99.90;;;;;;5021665;28;20204;-79
2023/12/08 01:30:31;;;;;;;17.60;7.35;;;31.70;99.90;;;;;;5019263;28;20217;-81
2023/12/08 01:33:03;;;;;;;18.80;6.78;;;31.60;99.90;;;;;;5029519;28;20638;-78
2023/12/08 01:35:33;;;;;;;17.23;7.25;;;31.60;99.90;;;;;;5029734;28;20197;-78
2023/12/08 01:38:04;;;;;;;18.00;7.07;;;31.40;99.90;;;;;;5029846;28;20208;-78
2023/12/08 01:40:35;;;;;;;18.33;7.63;;;31.30;99.90;;;;;;5020019;28;20227;-78
2023/12/08 01:43:11;;;;;;;20.52;8.30;;;31.20;99.90;;;;;;5030409;28;20276;-79
2023/12/08 01:45:44;;;;;;;18.23;7.85;;;31.10;99.90;;;;;;5021405;28;20251;-79
2023/12/08 01:48:15;;;;;;;16.98;7.60;;;31.10;99.90;;;;;;5026041;28;20595;-78
2023/12/08 01:50:46;;;;;;;20.15;8.20;;;31.00;99.90;;;;;;5021706;28;20781;-76
2023/12/08 01:53:18;;;;;;;16.52;7.47;;;30.90;99.90;;;;;;5012537;28;20217;-77
2023/12/08 01:55:48;;;;;;;20.35;7.95;;;30.90;99.90;;;;;;5015381;28;20236;-76
2023/12/08 01:58:20;;;;;;;15.73;7.28;;;30.90;99.90;;;;;;5032616;28;20224;-77
2023/12/08 02:00:54;;;;;;;18.10;8.27;;;31.00;99.90;;;;;;5025599;28;20243;-77
2023/12/08 02:03:25;;;;;;;15.95;7.43;;;31.10;99.90;;;;;;5020738;28;20218;-78
2023/12/08 02:05:56;;;;;;;15.25;7.38;;;31.10;99.90;;;;;;5018891;28;20229;-76
2023/12/08 02:08:27;;;;;;;20.40;7.10;;;31.20;99.90;;;;;;5024385;28;20213;-77
2023/12/08 02:10:58;;;;;;;17.65;7.72;;;31.30;99.90;;;;;;5017477;28;20301;-78
2023/12/08 02:13:29;;;;;;;17.27;7.65;;;31.40;99.90;;;;;;5013220;28;20194;-78
2023/12/08 02:16:06;;;;;;;17.40;7.53;;;31.40;99.90;;;;;;5016773;28;20202;-78
2023/12/08 02:18:39;;;;;;;17.15;7.88;;;31.30;99.90;;;;;;5037711;28;20225;-78
2023/12/08 02:21:11;;;;;;;15.85;7.45;;;31.20;99.90;;;;;;5035669;28;20751;-78
2023/12/08 02:23:46;;;;;;;16.52;6.68;;;31.20;99.90;;;;;;5033952;28;20510;-78
2023/12/08 02:26:17;;;;;;;22.30;7.35;;;31.10;99.90;;;;;;5032470;28;20189;-78
2023/12/08 02:28:49;;;;;;;18.80;6.90;;;31.10;99.90;;;;;;5024738;28;20194;-77
2023/12/08 02:31:24;;;;;;;16.58;6.72;;;31.00;99.90;;;;;;5013909;28;20248;-76
2023/12/08 02:33:56;;;;;;;18.58;6.85;;;30.90;99.90;;;;;;5017471;28;20363;-77
2023/12/08 02:36:29;;;;;;;15.95;6.15;;;30.80;99.90;;;;;;5018208;28;20256;-79
2023/12/08 02:39:03;;;;;;;22.90;6.38;;;30.70;99.90;;;;;;5026186;28;20221;-78
2023/12/08 02:41:34;;;;;;;22.23;6.30;;;30.70;99.90;;;;;;5028712;28;20262;-78
2023/12/08 02:44:05;;;;;;;18.08;6.00;;;30.50;99.90;;;;;;5033086;28;20575;-78
2023/12/08 02:46:36;;;;;;;18.63;5.45;;;30.40;99.90;;;;;;5030980;28;20193;-76
2023/12/08 02:49:07;;;;;;;18.98;6.05;;;30.20;99.90;;;;;;5020871;28;20220;-77
2023/12/08 02:51:38;;;;;;;15.50;5.68;;;30.10;99.90;;;;;;5019731;28;20660;-77
2023/12/08 02:54:11;;;;;;;15.52;5.50;;;30.00;99.90;;;;;;5023921;28;20221;-77
2023/12/08 02:56:41;;;;;;;18.30;5.60;;;30.00;99.90;;;;;;5023445;28;20201;-76
2023/12/08 02:59:12;;;;;;;15.23;5.80;;;30.10;99.90;;;;;;5011935;28;20308;-77
2023/12/08 03:01:43;;;;;;;19.77;5.88;;;30.20;99.90;;;;;;5020154;28;20571;-77
2023/12/08 03:04:15;;;;;;;15.82;5.43;;;30.40;99.90;;;;;;5024029;28;20215;-76
2023/12/08 03:06:46;;;;;;;20.35;6.00;;;30.40;99.90;;;;;;5023767;28;20253;-77
2023/12/08 03:09:22;;;;;;;22.75;5.07;;;30.40;99.90;;;;;;5029223;28;20683;-76
2023/12/08 03:11:52;;;;;;;14.70;5.32;;;30.40;99.90;;;;;;5032765;28;20689;-77
2023/12/08 03:14:23;;;;;;;14.02;4.82;;;30.30;99.90;;;;;;5018557;28;20196;-76
2023/12/08 03:16:54;;;;;;;15.48;4.90;;;30.20;99.90;;;;;;5027288;28;20221;-75
2023/12/08 03:19:25;;;;;;;18.27;5.15;;;30.30;99.90;;;;;;5030521;28;20244;-77
2023/12/08 03:21:56;;;;;;;17.48;5.88;;;30.40;99.90;;;;;;5039971;28;20248;-77
2023/12/08 03:24:28;;;;;;;16.17;4.93;;;30.60;99.90;;;;;;5029720;28;20217;-75
2023/12/08 03:26:59;;;;;;;17.20;5.38;;;30.60;99.90;;;;;;5019262;28;20190;-74
2023/12/08 03:29:30;;;;;;;15.65;5.00;;;30.60;99.90;;;;;;5027895;28;20336;-74
2023/12/08 03:32:00;;;;;;;13.60;4.82;;;30.60;99.90;;;;;;5029364;28;20205;-75
2023/12/08 03:34:31;;;;;;;13.73;4.93;;;30.60;99.90;;;;;;5026804;28;20323;-76
2023/12/08 03:37:02;;;;;;;17.80;5.13;;;30.50;99.90;;;;;;5012456;28;20226;-75
2023/12/08 03:39:35;;;;;;;20.10;5.65;;;30.40;99.90;;;;;;5024431;28;20204;-76
2023/12/08 03:42:06;;;;;;;15.55;5.10;;;30.30;99.90;;;;;;5022310;28;20207;-75
2023/12/08 03:44:37;;;;;;;15.05;5.55;;;30.40;99.90;;;;;;5028227;28;20286;-75
2023/12/08 03:47:08;;;;;;;18.30;5.65;;;30.60;99.90;;;;;;5018460;28;20224;-75
2023/12/08 03:49:39;;;;;;;20.60;5.90;;;30.60;99.90;;;;;;5028941;28;20197;-75
2023/12/08 03:52:10;;;;;;;12.68;4.85;;;30.70;99.90;;;;;;5030448;28;20236;-74
2023/12/08 03:54:42;;;;;;;15.40;5.20;;;30.90;99.90;;;;;;5027442;28;20251;-74
2023/12/08 03:57:13;;;;;;;15.50;5.15;;;30.80;99.90;;;;;;5029630;28;20201;-74
2023/12/08 03:59:46;;;;;;;12.52;4.97;;;30.80;99.90;;;;;;5023561;28;20336;-74
2023/12/08 04:02:17;;;;;;;12.95;4.60;;;31.00;99.90;;;;;;5029289;28;20207;-75
2023/12/08 04:04:48;;;;;;;16.20;5.15;;;31.10;99.90;;;;;;5014832;28;20218;-73
2023/12/08 04:07:19;;;;;;;13.85;4.72;;;31.20;99.90;;;;;;5027483;28;20201;-75
2023/12/08 04:09:51;;;;;;;15.73;5.70;;;31.30;99.90;;;;;;5031797;28;20260;-75
2023/12/08 04:12:22;;;;;;;15.32;5.05;;;31.20;99.90;;;;;;5030246;28;20193;-75
2023/12/08 04:14:56;;;;;;;17.50;5.18;;;30.90;99.90;;;;;;5023256;28;20215;-75
2023/12/08 04:17:27;;;;;;;17.65;4.90;;;30.70;99.90;;;;;;5032823;28;20222;-76
2023/12/08 04:19:58;;;;;;;13.32;4.65;;;30.60;99.90;;;;;;5028421;28;20303;-76
2023/12/08 04:22:29;;;;;;;11.95;4.32;;;30.90;99.90;;;;;;5015848;28;20208;-75
2023/12/08 04:25:02;;;;;;;19.98;4.93;;;31.00;99.90;;;;;;5025140;28;20225;-75
2023/12/08 04:27:33;;;;;;;16.05;5.05;;;30.90;99.90;;;;;;5023708;28;20281;-76
2023/12/08 04:30:03;;;;;;;12.05;4.18;;;31.00;99.90;;;;;;5027455;28;20392;-75
2023/12/08 04:32:34;;;;;;;16.45;4.70;;;31.00;99.90;;;;;;5027107;28;20205;-75
2023/12/08 04:35:05;;;;;;;17.98;5.00;;;31.20;99.90;;;;;;5012965;28;20556;-75
2023/12/08 04:37:36;;;;;;;15.48;4.55;;;31.30;99.90;;;;;;5028563;28;20653;-74
2023/12/08 04:40:09;;;;;;;18.42;5.00;;;31.40;99.90;;;;;;5025847;28;20213;-75
2023/12/08 04:42:40;;;;;;;15.18;4.63;;;31.50;99.90;;;;;;5027919;28;20217;-76
2023/12/08 04:45:13;;;;;;;14.48;4.80;;;31.50;99.90;;;;;;5018823;28;20265;-77
2023/12/08 04:47:44;;;;;;;18.90;4.78;;;31.50;99.90;;;;;;5033481;28;21115;-76
2023/12/08 04:50:15;;;;;;;18.73;4.65;;;31.50;99.90;;;;;;5025331;28;20257;-75
2023/12/08 04:52:46;;;;;;;15.85;4.70;;;31.70;99.90;;;;;;5029494;28;20229;-77
2023/12/08 04:55:19;;;;;;;20.67;4.75;;;31.80;99.90;;;;;;5018412;28;20214;-74
2023/12/08 04:57:50;;;;;;;13.13;4.05;;;31.80;99.90;;;;;;5013184;28;20218;-74
2023/12/08 05:00:20;;;;;;;17.40;4.78;;;31.90;99.90;;;;;;5013546;28;20225;-75
2023/12/08 05:02:51;;;;;;;13.88;4.25;;;31.90;99.90;;;;;;5004190;28;20221;-75
2023/12/08 05:05:22;;;;;;;16.67;4.30;;;32.00;99.90;;;;;;5014239;28;20722;-74
2023/12/08 05:07:53;;;;;;;15.25;4.57;;;31.80;99.90;;;;;;5012904;28;20616;-75
2023/12/08 05:10:25;;;;;;;14.98;4.80;;;32.00;99.90;;;;;;5027919;28;20195;-75
2023/12/08 05:12:56;;;;;;;17.20;4.50;;;31.90;99.90;;;;;;5021788;28;20583;-76
2023/12/08 05:15:27;;;;;;;15.20;4.10;;;31.60;99.90;;;;;;5021246;28;20213;-76
2023/12/08 05:17:58;;;;;;;15.43;4.70;;;31.30;99.90;;;;;;5021449;28;20304;-75
2023/12/08 05:20:28;;;;;;;11.68;4.15;;;31.40;99.90;;;;;;5015008;28;20221;-75
2023/12/08 05:22:59;;;;;;;15.77;4.45;;;31.70;99.90;;;;;;5029031;28;20921;-75
2023/12/08 05:25:33;;;;;;;12.15;3.95;;;32.00;99.90;;;;;;5026158;28;20224;-76
2023/12/08 05:28:04;;;;;;;16.08;4.13;;;32.10;99.90;;;;;;5023607;28;20227;-76
2023/12/08 05:30:35;;;;;;;12.77;4.05;;;32.30;99.90;;;;;;5026474;28;20276;-76
2023/12/08 05:33:06;;;;;;;11.98;4.00;;;32.40;99.90;;;;;;5020978;28;20224;-77
2023/12/08 05:35:37;;;;;;;16.50;3.83;;;32.40;99.90;;;;;;5017201;28;20193;-76
2023/12/08 05:38:08;;;;;;;13.98;4.15;;;32.60;99.90;;;;;;5024304;28;20303;-76
2023/12/08 05:40:40;;;;;;;18.88;4.22;;;32.50;99.90;;;;;;5025487;28;20225;-76
2023/12/08 05:43:11;;;;;;;11.57;3.63;;;32.20;99.90;;;;;;5031811;28;20567;-76
2023/12/08 05:45:42;;;;;;;11.45;3.58;;;31.70;99.90;;;;;;5032948;28;20691;-76
2023/12/08 05:48:13;;;;;;;12.63;3.97;;;31.30;99.90;;;;;;5020284;28;20300;-76
2023/12/08 05:50:44;;;;;;;12.50;3.75;;;31.00;99.90;;;;;;5020235;28;20277;-75
2023/12/08 05:53:15;;;;;;;12.25;3.85;;;30.80;99.90;;;;;;5025860;28;20212;-75
2023/12/08 05:55:48;;;;;;;15.45;4.70;;;30.90;99.90;;;;;;5034585;28;20208;-75
2023/12/08 05:58:19;;;;;;;12.98;4.05;;;31.30;99.90;;;;;;5031724;28;20193;-76
2023/12/08 06:00:50;;;;;;;14.65;4.50;;;31.40;99.90;;;;;;5024713;28;20223;-76
2023/12/08 06:03:21;;;;;;;17.83;4.45;;;31.70;99.90;;;;;;5023509;28;20217;-77
2023/12/08 06:05:52;;;;;;;14.98;4.80;;;31.80;99.90;;;;;;5025124;28;20224;-75
2023/12/08 06:08:24;;;;;;;16.02;4.70;;;32.10;99.90;;;;;;5026036;28;20698;-75
2023/12/08 06:10:56;;;;;;;14.55;4.38;;;31.90;99.90;;;;;;5022603;28;20269;-75
2023/12/08 06:13:27;;;;;;;17.52;4.93;;;31.70;99.90;;;;;;5029628;28;20555;-75
2023/12/08 06:15:58;;;;;;;20.60;5.30;;;31.30;99.90;;;;;;5022968;28;20263;-76
2023/12/08 06:18:29;;;;;;;14.50;4.28;;;31.30;99.90;;;;;;5014185;28;20293;-77
2023/12/08 06:21:00;;;;;;;18.27;4.80;;;31.70;99.90;;;;;;5031632;28;20316;-76
2023/12/08 06:23:31;;;;;;;18.75;4.35;;;31.70;99.90;;;;;;5023371;28;20304;-77
2023/12/08 06:26:04;;;;;;;17.67;4.75;;;31.90;99.90;;;;;;5012910;28;20281;-76
2023/12/08 06:28:35;;;;;;;16.75;4.57;;;32.00;99.90;;;;;;5034186;28;20221;-76
2023/12/08 06:31:06;;;;;;;12.65;4.20;;;31.70;99.90;;;;;;5025371;28;20205;-76
2023/12/08 06:33:36;;;;;;;15.43;4.45;;;31.00;99.90;;;;;;5019191;28;20205;-76
2023/12/08 06:36:08;;;;;;;16.10;4.70;;;30.50;99.90;;;;;;5032151;28;20201;-76
2023/12/08 06:38:41;;;;;;;15.77;5.20;;;30.20;99.90;;;;;;5030768;28;20644;-76
2023/12/08 06:41:14;;;;;;;17.88;5.32;;;29.90;99.90;;;;;;5013019;28;20304;-76
2023/12/08 06:43:45;;;;;;;15.48;4.32;;;29.70;99.90;;;;;;5025052;28;20714;-76
2023/12/08 06:46:16;;;;;;;12.50;4.47;;;29.70;99.90;;;;;;5026542;28;20264;-76
2023/12/08 06:48:47;;;;;;;19.98;5.22;;;29.60;99.90;;;;;;5027219;28;20618;-76
2023/12/08 06:51:17;;;;;;;13.80;4.60;;;29.60;99.90;;;;;;5017493;28;20309;-75
2023/12/08 06:53:48;;;;;;;15.80;4.82;;;29.60;99.90;;;;;;5019948;28;20197;-76
2023/12/08 06:56:21;;;;;;;16.83;4.32;;;29.60;99.90;;;;;;5027658;28;20298;-76
2023/12/08 06:58:52;;;;;;;17.65;5.07;;;29.60;99.90;;;;;;5015885;28;20258;-76
2023/12/08 07:01:23;;;;;;;14.48;4.70;;;29.70;99.90;;;;;;5025123;28;20300;-76
2023/12/08 07:03:54;;;;;;;13.55;4.53;;;29.60;99.90;;;;;;5016301;28;20202;-77
2023/12/08 07:06:25;;;;;;;15.07;4.90;;;29.50;99.90;;;;;;5024746;28;20249;-77
2023/12/08 07:08:56;;;;;;;15.50;4.80;;;29.80;99.90;;;;;;5021316;28;20232;-77
2023/12/08 07:11:28;;;;;;;15.02;4.93;;;30.00;99.90;;;;;;5023822;28;20252;-76
2023/12/08 07:13:59;;;;;;;15.73;4.82;;;30.10;99.90;;;;;;5019595;28;20264;-76
2023/12/08 07:16:30;;;;;;;15.27;4.40;;;30.20;99.90;;;;;;5026038;28;20217;-75
2023/12/08 07:19:01;;;;;;;14.25;4.60;;;30.40;99.90;;;;;;5019174;28;20213;-76
2023/12/08 07:21:32;;;;;;;17.30;4.25;;;31.10;99.90;;;;;;5020765;28;20229;-76
2023/12/08 07:24:02;;;;;;;10.85;3.65;;;31.40;99.90;;;;;;5017482;28;20283;-76
2023/12/08 07:26:35;;;;;;;16.75;4.07;;;31.90;99.90;;;;;;5024760;28;20249;-76
2023/12/08 07:29:06;;;;;;;13.77;4.60;;;32.30;99.90;;;;;;5022972;28;20241;-76
2023/12/08 07:31:37;;;;;;;19.15;4.50;;;32.00;99.90;;;;;;5021525;28;20253;-77
2023/12/08 07:34:08;;;;;;;12.18;3.78;;;32.10;99.90;;;;;;5018061;28;20193;-76
2023/12/08 07:36:39;;;;;;;18.08;4.40;;;32.30;99.90;;;;;;5017057;28;20260;-76
2023/12/08 07:39:10;;;;;;;13.15;4.10;;;31.70;99.90;;;;;;5026029;28;20240;-76
2023/12/08 07:41:44;;;;;;;13.77;4.50;;;31.30;99.90;;;;;;5034981;28;20227;-76
2023/12/08 07:44:15;;;;;;;12.25;3.80;;;31.00;99.90;;;;;;5018640;28;20588;-76
2023/12/08 07:46:45;;;;;;;13.57;4.57;;;30.60;99.90;;;;;;5026380;28;20225;-76
2023/12/08 07:49:16;;;;;;;17.05;5.38;;;30.30;99.90;;;;;;5024048;28;20253;-76
2023/12/08 07:51:47;;;;;;;12.10;4.32;;;30.00;99.90;;;;;;5017642;28;20267;-77
2023/12/08 07:54:20;;;;;;;12.63;4.70;;;29.70;99.90;;;;;;5031247;28;20631;-77
2023/12/08 07:56:53;;;;;;;15.25;4.90;;;29.40;99.90;;;;;;5028959;28;20201;-76
2023/12/08 07:59:24;;;;;;;15.63;4.60;;;29.30;99.90;;;;;;5029256;28;20205;-76
2023/12/08 08:01:55;;;;;;;13.32;4.90;;;29.20;99.90;;;;;;5027258;28;20708;-77
2023/12/08 08:04:26;;;;;;;18.27;4.47;;;29.10;99.90;;;;;;5028255;28;20212;-77
2023/12/08 08:06:56;;;;;;;13.75;4.70;;;28.90;99.90;;;;;;5022089;28;20209;-77
2023/12/08 08:09:27;;;;;;;16.17;5.00;;;28.80;99.90;;;;;;5021025;28;20205;-77
2023/12/08 08:12:00;;;;;;;13.57;4.50;;;28.70;99.90;;;;;;5017783;28;20213;-77
2023/12/08 08:14:30;;;;;;;16.05;5.22;;;28.50;99.90;;;;;;5017559;28;20213;-77
2023/12/08 08:17:04;;;;;;;15.48;4.97;;;28.40;99.90;;;;;;5025221;28;20664;-76
2023/12/08 08:19:35;;;;;;;13.65;4.60;;;28.30;99.90;;;;;;5026362;28;20225;-77
2023/12/08 08:22:06;;;;;;;13.93;4.90;;;28.20;99.90;;;;;;5029249;28;20221;-77
2023/12/08 08:24:37;;;;;;;15.68;4.65;;;28.20;99.90;;;;;;5029227;28;20197;-77
2023/12/08 08:27:10;;;;;;;18.33;4.90;;;28.20;99.90;;;;;;5019657;28;20715;-77
2023/12/08 08:29:40;;;;;;;17.38;4.70;;;28.20;99.90;;;;;;5014381;28;20233;-77
2023/12/08 08:32:11;;;;;;;15.15;4.35;;;28.10;99.90;;;;;;5019576;28;20305;-76
2023/12/08 08:34:42;;;;;;;13.60;4.38;;;28.00;99.90;;;;;;5028126;28;20193;-76
2023/12/08 08:37:13;;;;;;;16.33;4.88;;;28.00;99.90;;;;;;5029189;28;20284;-76
2023/12/08 08:39:44;;;;;;;13.80;4.70;;;28.00;99.90;;;;;;5025406;28;20193;-76
2023/12/08 08:42:17;;;;;;;12.52;4.47;;;28.00;99.90;;;;;;5029827;28;20221;-75
2023/12/08 08:44:47;;;;;;;15.30;4.32;;;28.00;99.90;;;;;;5014334;28;20626;-78
2023/12/08 08:47:19;;;;;;;15.10;4.75;;;28.00;99.90;;;;;;5010769;28;20544;-77
2023/12/08 08:49:49;;;;;;;13.88;4.68;;;27.90;99.90;;;;;;5011009;28;20703;-77
2023/12/08 08:52:20;;;;;;;16.10;4.85;;;27.90;99.90;;;;;;5026660;28;20224;-78
2023/12/08 08:54:51;;;;;;;14.00;4.47;;;27.90;99.90;;;;;;5026226;28;20557;-78
2023/12/08 08:57:24;;;;;;;14.95;4.93;;;27.80;99.90;;;;;;5028674;28;20243;-76
2023/12/08 08:59:55;;;;;;;13.68;4.55;;;27.80;99.90;;;;;;5046662;28;20231;-77
2023/12/08 09:02:26;;;;;;;16.30;5.30;;;27.70;99.90;;;;;;5028612;28;20711;-77
2023/12/08 09:04:57;;;;;;;15.68;4.55;;;27.70;99.90;;;;;;5013095;28;20223;-76
2023/12/08 09:07:28;;;;;;;14.45;4.65;;;27.70;99.90;;;;;;5014664;28;20236;-77
2023/12/08 09:09:58;;;;;;;14.07;4.63;;;27.70;99.90;;;;;;5026305;28;20212;-77
2023/12/08 09:12:31;;;;;;;13.73;4.68;;;27.70;99.90;;;;;;5024605;28;20201;-77
2023/12/08 09:15:02;;;;;;;16.15;5.03;;;27.70;99.90;;;;;;5014826;28;20628;-77
2023/12/08 09:17:35;;;;;;;13.68;4.80;;;27.70;99.90;;;;;;5022221;28;20217;-76
2023/12/08 09:20:08;;;;;;;13.82;4.78;;;27.60;99.90;;;;;;5024300;28;20299;-77
2023/12/08 09:22:39;;;;;;;13.80;4.10;;;27.60;99.90;;;;;;5030346;28;20591;-77
2023/12/08 09:25:10;;;;;;;13.73;4.25;;;27.60;99.90;;;;;;5027567;28;20229;-76
2023/12/08 09:27:43;;;;;;;14.15;4.68;;;27.60;99.90;;;;;;5027647;28;20201;-77
2023/12/08 09:30:14;;;;;;;11.70;4.40;;;27.50;99.90;;;;;;5019296;28;20307;-77
2023/12/08 09:32:45;;;;;;;18.70;5.13;;;27.60;99.90;;;;;;5020172;28;20217;-76
2023/12/08 09:35:16;;;;;;;13.07;4.25;;;27.50;99.90;;;;;;5030472;28;20280;-77
2023/12/08 09:38:03;;;;;;;15.10;4.45;;;27.50;99.90;;;;;;5026686;28;20221;-77
2023/12/08 09:40:35;;;;;;;15.10;4.65;;;27.50;99.90;;;;;;5025504;28;20217;-76
2023/12/08 09:43:13;;;;;;;15.02;4.40;;;27.50;99.90;;;;;;5023630;28;21312;-77
2023/12/08 09:45:47;;;;;;;16.33;4.60;;;27.50;99.90;;;;;;5022307;28;20257;-76
2023/12/08 09:48:20;;;;;;;15.38;4.70;;;27.50;99.90;;;;;;5014782;28;20368;-77
2023/12/08 09:50:52;;;;;;;15.52;4.20;;;27.40;99.90;;;;;;5013773;28;20232;-77
2023/12/08 09:53:29;;;;;;;17.23;4.72;;;27.30;99.90;;;;;;5017803;28;20224;-77
2023/12/08 09:56:00;;;;;;;12.65;4.07;;;27.30;99.90;;;;;;5013640;28;20220;-76
2023/12/08 09:58:50;;;;;;;17.48;4.82;;;27.30;99.90;;;;;;5021423;28;20198;-78
2023/12/08 10:01:21;;;;;;;15.75;4.45;;;27.30;99.90;;;;;;5017004;28;20221;-77
2023/12/08 10:03:52;;;;;;;18.05;4.82;;;27.40;99.90;;;;;;5021930;28;20548;-77
2023/12/08 10:06:25;;;;;;;17.70;4.90;;;27.40;99.90;;;;;;5018581;28;20715;-77
2023/12/08 10:08:56;;;;;;;13.25;4.80;;;27.30;99.90;;;;;;5017857;28;20309;-78
2023/12/08 10:11:30;;;;;;;14.30;4.65;;;27.40;99.90;;;;;;5010857;28;20206;-76
2023/12/08 10:14:04;;;;;;;14.98;4.97;;;27.30;99.90;;;;;;5025940;28;20561;-77
2023/12/08 10:16:35;;;;;;;18.02;4.95;;;27.30;99.90;;;;;;5027578;28;20284;-77
2023/12/08 10:19:09;;;;;;;17.58;4.65;;;27.30;99.90;;;;;;5024925;28;20300;-76
2023/12/08 10:21:40;;;;;;;13.48;4.72;;;27.20;99.90;;;;;;5022287;28;20221;-76
2023/12/08 10:24:11;;;;;;;16.60;5.15;;;27.20;99.90;;;;;;5020974;28;20697;-76
2023/12/08 10:26:44;;;;;;;14.57;4.72;;;27.10;99.90;;;;;;5021876;28;20287;-76
2023/12/08 10:29:27;;;;;;;17.08;5.20;;;27.20;99.90;;;;;;5031040;28;20218;-77
2023/12/08 10:32:00;;;;;;;14.45;4.75;;;27.10;99.90;;;;;;5031178;28;20292;-77
2023/12/08 10:34:31;;;;;;;16.20;5.30;;;27.10;99.90;;;;;;5024166;28;20218;-77
2023/12/08 10:37:02;;;;;;;18.42;5.45;;;27.10;99.90;;;;;;5027030;28;20249;-77
2023/12/08 10:39:35;;;;;;;14.38;4.78;;;27.10;99.90;;;;;;5025457;28;20212;-77
2023/12/08 10:42:08;;;;;;;17.95;5.07;;;27.10;99.90;;;;;;5013672;28;20688;-77
2023/12/08 10:44:41;;;;;;;16.45;5.20;;;27.20;99.90;;;;;;5019569;28;20316;-77
2023/12/08 10:47:11;;;;;;;15.98;4.70;;;27.10;99.90;;;;;;5024370;28;20224;-76
2023/12/08 10:49:43;;;;;;;17.10;5.10;;;27.00;99.90;;;;;;5024215;28;20285;-77
2023/12/08 10:52:14;;;;;;;16.02;5.53;;;27.00;99.90;;;;;;5028384;28;20260;-77
2023/12/08 10:54:50;;;;;;;13.10;4.75;;;27.00;99.90;;;;;;5016172;28;20218;-77
2023/12/08 10:57:27;;;;;;;20.38;5.32;;;26.90;99.90;;;;;;5032640;28;20228;-78
2023/12/08 11:00:04;;;;;;;17.33;5.07;;;26.80;99.90;;;;;;5027935;28;20263;-78
2023/12/08 11:02:36;;;;;;;23.05;5.30;;;26.80;99.90;;;;;;5019913;28;20252;-77
2023/12/08 11:05:11;;;;;;;15.80;5.05;;;26.80;99.90;;;;;;5017766;28;20704;-77
2023/12/08 11:07:44;;;;;;;16.73;4.93;;;26.80;99.90;;;;;;5025770;28;20609;-77
2023/12/08 11:10:18;;;;;;;18.25;5.72;;;26.70;99.90;;;;;;5027378;28;20228;-77
2023/12/08 11:12:56;;;;;;;15.07;5.35;;;26.70;99.90;;;;;;5031864;28;20296;-76
2023/12/08 11:15:35;;;;;;;16.60;4.97;;;26.70;99.90;;;;;;5025129;28;20225;-77
2023/12/08 11:18:15;;;;;;;16.38;5.25;;;26.70;99.90;;;;;;5021460;28;20249;-77
2023/12/08 11:20:46;;;;;;;17.33;5.30;;;26.70;99.90;;;;;;5023219;28;20198;-77
2023/12/08 11:23:18;;;;;;;19.52;5.43;;;26.60;99.90;;;;;;5024298;28;20226;-77
2023/12/08 11:25:57;;;;;;;17.30;5.55;;;26.60;99.90;;;;;;5025963;28;20233;-77
2023/12/08 11:28:35;;;;;;;14.70;4.95;;;26.50;99.90;;;;;;5031716;28;20736;-77
2023/12/08 11:31:15;;;;;;;18.95;4.80;;;26.50;99.90;;;;;;5027821;28;20213;-76
2023/12/08 11:33:54;;;;;;;18.08;5.32;;;26.50;99.90;;;;;;5031743;28;20193;-77
2023/12/08 11:36:24;;;;;;;20.00;5.30;;;26.60;99.90;;;;;;5026773;28;20186;-77
2023/12/08 11:38:55;;;;;;;15.25;4.85;;;26.50;99.90;;;;;;5021890;28;20211;-77
2023/12/08 11:41:27;;;;;;;19.17;4.93;;;26.60;99.90;;;;;;5023375;28;20328;-76
2023/12/08 11:43:57;;;;;;;16.48;4.85;;;26.60;99.90;;;;;;5025500;28;20237;-76
2023/12/08 11:46:30;;;;;;;20.80;5.35;;;26.60;99.90;;;;;;5018088;28;20233;-76
2023/12/08 11:49:01;;;;;;;20.33;5.82;;;26.50;99.90;;;;;;5025766;28;20709;-76
2023/12/08 11:51:33;;;;;;;16.92;4.88;;;26.40;99.90;;;;;;5023325;28;20212;-76
2023/12/08 11:54:05;;;;;;;17.73;4.78;;;26.40;99.90;;;;;;5030413;28;20197;-76
2023/12/08 11:56:45;;;;;;;16.27;5.13;;;26.40;99.90;;;;;;5031170;28;20193;-77
2023/12/08 11:59:24;;;;;;;19.67;5.60;;;26.40;99.90;;;;;;5031480;28;20200;-76
2023/12/08 12:01:58;;;;;;;23.48;6.32;;;26.30;99.90;;;;;;5020790;28;20198;-77
2023/12/08 12:04:31;;;;;;;16.52;5.13;;;26.30;99.90;;;;;;5019515;28;20694;-76
2023/12/08 12:07:02;;;;;;;18.90;5.30;;;26.30;99.90;;;;;;5031279;28;20691;-76
2023/12/08 12:09:36;;;;;;;17.58;5.03;;;26.30;99.90;;;;;;5024699;28;20203;-76
2023/12/08 12:12:13;;;;;;;18.77;5.63;;;26.20;99.90;;;;;;5020425;28;20651;-76
2023/12/08 12:14:46;;;;;;;17.83;4.75;;;26.20;99.90;;;;;;5031231;28;20205;-77
2023/12/08 12:17:18;;;;;;;21.63;5.38;;;26.20;99.90;;;;;;5030887;28;20205;-76
2023/12/08 12:19:50;;;;;;;17.17;5.40;;;26.20;99.90;;;;;;5030538;28;20197;-76
2023/12/08 12:22:21;;;;;;;20.10;5.10;;;26.20;99.90;;;;;;5025896;28;20661;-76
2023/12/08 12:24:52;;;;;;;17.98;5.22;;;26.10;99.90;;;;;;5026575;28;20740;-76
2023/12/08 12:27:22;;;;;;;22.05;5.32;;;26.10;99.90;;;;;;5031263;28;20224;-76
2023/12/08 12:29:53;;;;;;;15.57;5.30;;;26.10;99.90;;;;;;5028156;28;20218;-76
2023/12/08 12:32:26;;;;;;;20.80;5.05;;;26.00;99.90;;;;;;5016292;28;20214;-76
2023/12/08 12:34:57;;;;;;;16.13;5.25;;;26.10;99.90;;;;;;5025378;28;20291;-76
2023/12/08 12:37:28;;;;;;;22.00;5.70;;;26.00;99.90;;;;;;5016408;28;20222;-76
2023/12/08 12:40:00;;;;;;;19.15;5.38;;;26.00;99.90;;;;;;5031218;28;20612;-76
2023/12/08 12:42:31;;;;;;;18.98;4.65;;;26.00;99.90;;;;;;5029374;28;20276;-76
2023/12/08 12:45:02;;;;;;;15.43;4.85;;;26.00;99.90;;;;;;5030482;28;20312;-76
2023/12/08 12:47:35;;;;;;;18.30;5.45;;;26.10;99.90;;;;;;5030682;28;20231;-76
2023/12/08 12:50:07;;;;;;;18.33;4.95;;;26.10;99.90;;;;;;5027373;28;20217;-75
2023/12/08 12:52:40;;;;;;;19.80;5.25;;;26.10;99.90;;;;;;5021670;28;20214;-76
2023/12/08 12:55:26;;;;;;;14.52;4.97;;;26.10;99.90;;;;;;5020376;28;20563;-76
2023/12/08 12:57:57;;;;;;;15.13;4.47;;;26.20;99.90;;;;;;5027873;28;20204;-76
2023/12/08 13:00:35;;;;;;;18.08;5.63;;;26.20;99.90;;;;;;5024346;28;20477;-76